sensor_id;sensor_type;location;lat;lon;timestamp;P1;durP1;ratioP1;P2;durP2;ratioP2
40012;SDS011;37387;42.672;23.334;2022-07-01T00:01:45;5.7;;;2.9;;
40012;SDS011;37387;42.672;23.334;2022-07-01T00:02:45;5.7;;;2.8;;
40012;SDS011;37387;42.672;23.334;2022-07-01T00:04:45;5.1;;;3.2;;
40012;SDS011;37387;42.672;23.334;2022-07-01T00:05:45;5.6;;;3.0;;
40012;SDS011;37387;42.672;23.334;2022-07-01T00:06:45;9.8;;;3.4;;
40012;SDS011;37387;42.672;23.334;2022-07-01T00:07:45;9.8;;;3.0;;
40012;SDS011;37387;42.672;23.334;2022-07-01T00:08:45;6.3;;;3.1;;
40012;SDS011;37387;42.672;23.334;2022-07-01T00:09:45;6.3;;;2.7;;
40012;SDS011;37387;42.672;23.334;2022-07-01T00:10:45;6.2;;;3.0;;
40012;SDS011;37387;42.672;23.334;2022-07-01T00:11:45;5.2;;;3.1;;
40012;SDS011;37387;42.672;23.334;2022-07-01T00:12:45;5.4;;;3.0;;
40012;SDS011;37387;42.672;23.334;2022-07-01T00:13:45;5.4;;;2.9;;
40012;SDS011;37387;42.672;23.334;2022-07-01T00:14:46;6.2;;;3.0;;
40012;SDS011;37387;42.672;23.334;2022-07-01T00:15:46;6.2;;;2.9;;
40012;SDS011;37387;42.672;23.334;2022-07-01T00:17:46;5.1;;;3.4;;
40012;SDS011;37387;42.672;23.334;2022-07-01T00:18:46;5.4;;;3.0;;
40012;SDS011;37387;42.672;23.334;2022-07-01T00:19:46;6.7;;;2.6;;
40012;SDS011;37387;42.672;23.334;2022-07-01T00:20:46;5.3;;;2.8;;
40012;SDS011;37387;42.672;23.334;2022-07-01T00:21:46;5.2;;;3.0;;
40012;SDS011;37387;42.672;23.334;2022-07-01T00:22:46;7.1;;;2.9;;
40012;SDS011;37387;42.672;23.334;2022-07-01T00:23:46;7.1;;;2.7;;
40012;SDS011;37387;42.672;23.334;2022-07-01T00:24:46;3.9;;;3.0;;
40012;SDS011;37387;42.672;23.334;2022-07-01T00:25:47;4.2;;;2.9;;
40012;SDS011;37387;42.672;23.334;2022-07-01T00:27:47;3.5;;;3.0;;
40012;SDS011;37387;42.672;23.334;2022-07-01T00:28:47;6.4;;;2.6;;
40012;SDS011;37387;42.672;23.334;2022-07-01T00:29:47;4.5;;;2.7;;
40012;SDS011;37387;42.672;23.334;2022-07-01T00:30:47;4.5;;;2.9;;
40012;SDS011;37387;42.672;23.334;2022-07-01T00:31:47;5.3;;;2.8;;
40012;SDS011;37387;42.672;23.334;2022-07-01T00:32:47;6.0;;;2.7;;
40012;SDS011;37387;42.672;23.334;2022-07-01T00:33:47;6.0;;;2.8;;
40012;SDS011;37387;42.672;23.334;2022-07-01T00:34:47;5.2;;;2.9;;
40012;SDS011;37387;42.672;23.334;2022-07-01T00:35:47;5.2;;;2.7;;
40012;SDS011;37387;42.672;23.334;2022-07-01T00:36:47;4.4;;;2.6;;
40012;SDS011;37387;42.672;23.334;2022-07-01T00:37:48;6.5;;;2.8;;
40012;SDS011;37387;42.672;23.334;2022-07-01T00:38:48;6.5;;;3.2;;
40012;SDS011;37387;42.672;23.334;2022-07-01T00:39:48;6.1;;;2.7;;
40012;SDS011;37387;42.672;23.334;2022-07-01T00:40:51;6.0;;;2.8;;
40012;SDS011;37387;42.672;23.334;2022-07-01T00:41:48;4.0;;;3.3;;
40012;SDS011;37387;42.672;23.334;2022-07-01T00:42:48;6.0;;;3.2;;
40012;SDS011;37387;42.672;23.334;2022-07-01T00:43:48;5.5;;;3.0;;
40012;SDS011;37387;42.672;23.334;2022-07-01T00:44:48;5.5;;;3.2;;
40012;SDS011;37387;42.672;23.334;2022-07-01T00:45:48;6.9;;;2.7;;
40012;SDS011;37387;42.672;23.334;2022-07-01T00:46:49;7.6;;;3.1;;
40012;SDS011;37387;42.672;23.334;2022-07-01T00:47:48;5.9;;;2.9;;
40012;SDS011;37387;42.672;23.334;2022-07-01T00:48:49;5.3;;;2.8;;
40012;SDS011;37387;42.672;23.334;2022-07-01T00:49:49;4.5;;;3.0;;
40012;SDS011;37387;42.672;23.334;2022-07-01T00:50:49;5.0;;;3.1;;
40012;SDS011;37387;42.672;23.334;2022-07-01T00:51:49;5.5;;;3.5;;
40012;SDS011;37387;42.672;23.334;2022-07-01T00:52:49;8.2;;;2.9;;
40012;SDS011;37387;42.672;23.334;2022-07-01T00:53:49;5.3;;;3.0;;
40012;SDS011;37387;42.672;23.334;2022-07-01T00:55:49;4.2;;;3.1;;
40012;SDS011;37387;42.672;23.334;2022-07-01T00:56:49;4.9;;;3.2;;
40012;SDS011;37387;42.672;23.334;2022-07-01T00:57:49;6.0;;;2.9;;
40012;SDS011;37387;42.672;23.334;2022-07-01T00:58:49;4.5;;;2.8;;
40012;SDS011;37387;42.672;23.334;2022-07-01T00:59:49;3.9;;;3.1;;
40012;SDS011;37387;42.672;23.334;2022-07-01T01:00:49;5.5;;;3.6;;
40012;SDS011;37387;42.672;23.334;2022-07-01T01:01:49;5.8;;;3.3;;
40012;SDS011;37387;42.672;23.334;2022-07-01T01:02:50;5.8;;;3.0;;
40012;SDS011;37387;42.672;23.334;2022-07-01T01:03:50;5.0;;;3.2;;
40012;SDS011;37387;42.672;23.334;2022-07-01T01:04:50;4.2;;;3.3;;
40012;SDS011;37387;42.672;23.334;2022-07-01T01:05:50;6.4;;;3.0;;
40012;SDS011;37387;42.672;23.334;2022-07-01T01:07:50;4.6;;;3.4;;
40012;SDS011;37387;42.672;23.334;2022-07-01T01:08:50;4.6;;;3.1;;
40012;SDS011;37387;42.672;23.334;2022-07-01T01:10:50;5.7;;;3.0;;
40012;SDS011;37387;42.672;23.334;2022-07-01T01:11:50;6.1;;;3.5;;
40012;SDS011;37387;42.672;23.334;2022-07-01T01:12:50;6.1;;;3.0;;
40012;SDS011;37387;42.672;23.334;2022-07-01T01:13:50;5.8;;;3.4;;
40012;SDS011;37387;42.672;23.334;2022-07-01T01:14:51;4.7;;;3.0;;
40012;SDS011;37387;42.672;23.334;2022-07-01T01:15:51;4.9;;;3.4;;
40012;SDS011;37387;42.672;23.334;2022-07-01T01:16:51;4.9;;;3.3;;
40012;SDS011;37387;42.672;23.334;2022-07-01T01:17:51;6.8;;;3.2;;
40012;SDS011;37387;42.672;23.334;2022-07-01T01:18:51;4.1;;;3.4;;
40012;SDS011;37387;42.672;23.334;2022-07-01T01:19:51;7.6;;;3.3;;
40012;SDS011;37387;42.672;23.334;2022-07-01T01:20:51;7.7;;;3.6;;
40012;SDS011;37387;42.672;23.334;2022-07-01T01:21:51;7.7;;;3.2;;
40012;SDS011;37387;42.672;23.334;2022-07-01T01:23:51;6.9;;;3.5;;
40012;SDS011;37387;42.672;23.334;2022-07-01T01:24:51;7.3;;;3.1;;
40012;SDS011;37387;42.672;23.334;2022-07-01T01:25:51;3.7;;;3.4;;
40012;SDS011;37387;42.672;23.334;2022-07-01T01:26:51;5.1;;;3.5;;
40012;SDS011;37387;42.672;23.334;2022-07-01T01:27:52;5.1;;;3.6;;
40012;SDS011;37387;42.672;23.334;2022-07-01T01:29:52;7.0;;;3.0;;
40012;SDS011;37387;42.672;23.334;2022-07-01T01:30:52;6.4;;;3.4;;
40012;SDS011;37387;42.672;23.334;2022-07-01T01:31:52;10.4;;;3.5;;
40012;SDS011;37387;42.672;23.334;2022-07-01T01:32:52;5.3;;;3.3;;
40012;SDS011;37387;42.672;23.334;2022-07-01T01:33:52;5.3;;;3.4;;
40012;SDS011;37387;42.672;23.334;2022-07-01T01:35:52;7.5;;;3.5;;
40012;SDS011;37387;42.672;23.334;2022-07-01T01:37:52;7.0;;;3.7;;
40012;SDS011;37387;42.672;23.334;2022-07-01T01:38:52;4.6;;;3.3;;
40012;SDS011;37387;42.672;23.334;2022-07-01T01:39:52;4.6;;;3.6;;
40012;SDS011;37387;42.672;23.334;2022-07-01T01:41:53;10.3;;;3.4;;
40012;SDS011;37387;42.672;23.334;2022-07-01T01:42:53;5.8;;;3.8;;
40012;SDS011;37387;42.672;23.334;2022-07-01T01:44:53;6.9;;;3.9;;
40012;SDS011;37387;42.672;23.334;2022-07-01T01:45:53;6.8;;;3.7;;
40012;SDS011;37387;42.672;23.334;2022-07-01T01:46:53;5.9;;;3.6;;
40012;SDS011;37387;42.672;23.334;2022-07-01T01:47:53;6.6;;;3.9;;
40012;SDS011;37387;42.672;23.334;2022-07-01T01:48:53;6.6;;;3.5;;
40012;SDS011;37387;42.672;23.334;2022-07-01T01:49:53;7.2;;;3.7;;
40012;SDS011;37387;42.672;23.334;2022-07-01T01:51:53;7.3;;;3.6;;
40012;SDS011;37387;42.672;23.334;2022-07-01T01:52:53;7.3;;;3.7;;
40012;SDS011;37387;42.672;23.334;2022-07-01T01:55:53;6.8;;;3.8;;
40012;SDS011;37387;42.672;23.334;2022-07-01T01:56:53;7.6;;;4.0;;
40012;SDS011;37387;42.672;23.334;2022-07-01T01:58:54;7.2;;;3.4;;
40012;SDS011;37387;42.672;23.334;2022-07-01T01:59:54;6.0;;;4.3;;
40012;SDS011;37387;42.672;23.334;2022-07-01T02:00:54;6.8;;;3.6;;
40012;SDS011;37387;42.672;23.334;2022-07-01T02:01:54;5.2;;;3.8;;
40012;SDS011;37387;42.672;23.334;2022-07-01T02:02:54;5.8;;;3.5;;
40012;SDS011;37387;42.672;23.334;2022-07-01T02:03:54;5.8;;;3.8;;
40012;SDS011;37387;42.672;23.334;2022-07-01T02:04:54;6.2;;;3.9;;
40012;SDS011;37387;42.672;23.334;2022-07-01T02:05:54;6.8;;;3.8;;
40012;SDS011;37387;42.672;23.334;2022-07-01T02:06:54;5.9;;;3.6;;
40012;SDS011;37387;42.672;23.334;2022-07-01T02:07:54;4.7;;;3.8;;
40012;SDS011;37387;42.672;23.334;2022-07-01T02:08:54;7.5;;;4.0;;
40012;SDS011;37387;42.672;23.334;2022-07-01T02:09:54;6.2;;;3.7;;
40012;SDS011;37387;42.672;23.334;2022-07-01T02:10:54;5.6;;;4.0;;
40012;SDS011;37387;42.672;23.334;2022-07-01T02:11:54;6.8;;;4.6;;
40012;SDS011;37387;42.672;23.334;2022-07-01T02:12:54;8.4;;;4.0;;
40012;SDS011;37387;42.672;23.334;2022-07-01T02:13:54;8.9;;;4.3;;
40012;SDS011;37387;42.672;23.334;2022-07-01T02:14:54;8.9;;;4.0;;
40012;SDS011;37387;42.672;23.334;2022-07-01T02:15:55;8.2;;;4.2;;
40012;SDS011;37387;42.672;23.334;2022-07-01T02:16:55;6.7;;;4.4;;
40012;SDS011;37387;42.672;23.334;2022-07-01T02:17:55;7.1;;;4.1;;
40012;SDS011;37387;42.672;23.334;2022-07-01T02:18:55;7.1;;;4.4;;
40012;SDS011;37387;42.672;23.334;2022-07-01T02:20:55;8.4;;;5.0;;
40012;SDS011;37387;42.672;23.334;2022-07-01T02:22:55;8.2;;;5.2;;
40012;SDS011;37387;42.672;23.334;2022-07-01T02:23:55;8.2;;;5.3;;
40012;SDS011;37387;42.672;23.334;2022-07-01T02:24:55;8.0;;;5.7;;
40012;SDS011;37387;42.672;23.334;2022-07-01T02:25:55;9.2;;;5.3;;
40012;SDS011;37387;42.672;23.334;2022-07-01T02:26:55;10.3;;;5.2;;
40012;SDS011;37387;42.672;23.334;2022-07-01T02:27:55;6.1;;;4.9;;
40012;SDS011;37387;42.672;23.334;2022-07-01T02:28:55;6.1;;;5.0;;
40012;SDS011;37387;42.672;23.334;2022-07-01T02:30:55;8.8;;;5.3;;
40012;SDS011;37387;42.672;23.334;2022-07-01T02:31:55;10.5;;;5.2;;
40012;SDS011;37387;42.672;23.334;2022-07-01T02:32:56;8.3;;;4.8;;
40012;SDS011;37387;42.672;23.334;2022-07-01T02:33:56;7.2;;;5.1;;
40012;SDS011;37387;42.672;23.334;2022-07-01T02:36:56;8.5;;;5.4;;
40012;SDS011;37387;42.672;23.334;2022-07-01T02:37:56;11.1;;;5.3;;
40012;SDS011;37387;42.672;23.334;2022-07-01T02:38:56;7.1;;;5.0;;
40012;SDS011;37387;42.672;23.334;2022-07-01T02:39:56;7.0;;;5.5;;
40012;SDS011;37387;42.672;23.334;2022-07-01T02:40:56;9.1;;;6.0;;
40012;SDS011;37387;42.672;23.334;2022-07-01T02:41:56;9.9;;;5.2;;
40012;SDS011;37387;42.672;23.334;2022-07-01T02:44:56;11.4;;;5.3;;
40012;SDS011;37387;42.672;23.334;2022-07-01T02:45:56;11.4;;;5.0;;
40012;SDS011;37387;42.672;23.334;2022-07-01T02:46:56;9.2;;;5.4;;
40012;SDS011;37387;42.672;23.334;2022-07-01T02:47:56;8.6;;;5.5;;
40012;SDS011;37387;42.672;23.334;2022-07-01T02:48:56;8.5;;;5.4;;
40012;SDS011;37387;42.672;23.334;2022-07-01T02:49:56;8.5;;;4.9;;
40012;SDS011;37387;42.672;23.334;2022-07-01T02:50:57;8.5;;;5.5;;
40012;SDS011;37387;42.672;23.334;2022-07-01T02:51:57;7.7;;;4.8;;
40012;SDS011;37387;42.672;23.334;2022-07-01T02:52:57;7.1;;;5.6;;
40012;SDS011;37387;42.672;23.334;2022-07-01T02:53:57;12.1;;;5.3;;
40012;SDS011;37387;42.672;23.334;2022-07-01T02:54:57;7.1;;;5.4;;
40012;SDS011;37387;42.672;23.334;2022-07-01T02:55:57;8.6;;;5.3;;
40012;SDS011;37387;42.672;23.334;2022-07-01T02:57:57;8.2;;;5.6;;
40012;SDS011;37387;42.672;23.334;2022-07-01T02:58:57;9.1;;;5.3;;
40012;SDS011;37387;42.672;23.334;2022-07-01T03:00:57;8.4;;;5.2;;
40012;SDS011;37387;42.672;23.334;2022-07-01T03:01:57;10.8;;;5.8;;
40012;SDS011;37387;42.672;23.334;2022-07-01T03:02:57;8.6;;;5.1;;
40012;SDS011;37387;42.672;23.334;2022-07-01T03:03:57;8.3;;;5.4;;
40012;SDS011;37387;42.672;23.334;2022-07-01T03:04:57;8.3;;;5.1;;
40012;SDS011;37387;42.672;23.334;2022-07-01T03:05:57;9.1;;;5.6;;
40012;SDS011;37387;42.672;23.334;2022-07-01T03:06:57;9.0;;;6.1;;
40012;SDS011;37387;42.672;23.334;2022-07-01T03:07:58;11.4;;;5.4;;
40012;SDS011;37387;42.672;23.334;2022-07-01T03:08:57;10.7;;;5.8;;
40012;SDS011;37387;42.672;23.334;2022-07-01T03:09:58;9.8;;;5.2;;
40012;SDS011;37387;42.672;23.334;2022-07-01T03:10:58;8.8;;;5.3;;
40012;SDS011;37387;42.672;23.334;2022-07-01T03:11:58;9.5;;;6.0;;
40012;SDS011;37387;42.672;23.334;2022-07-01T03:12:58;10.7;;;6.2;;
40012;SDS011;37387;42.672;23.334;2022-07-01T03:13:58;12.7;;;5.8;;
40012;SDS011;37387;42.672;23.334;2022-07-01T03:14:59;12.9;;;5.3;;
40012;SDS011;37387;42.672;23.334;2022-07-01T03:17:58;8.6;;;4.8;;
40012;SDS011;37387;42.672;23.334;2022-07-01T03:19:58;9.0;;;5.0;;
40012;SDS011;37387;42.672;23.334;2022-07-01T03:21:58;8.7;;;4.6;;
40012;SDS011;37387;42.672;23.334;2022-07-01T03:22:58;8.7;;;5.2;;
40012;SDS011;37387;42.672;23.334;2022-07-01T03:23:59;8.0;;;4.8;;
40012;SDS011;37387;42.672;23.334;2022-07-01T03:24:59;6.9;;;4.6;;
40012;SDS011;37387;42.672;23.334;2022-07-01T03:25:59;10.4;;;5.1;;
40012;SDS011;37387;42.672;23.334;2022-07-01T03:26:59;10.1;;;4.9;;
40012;SDS011;37387;42.672;23.334;2022-07-01T03:27:59;9.5;;;4.5;;
40012;SDS011;37387;42.672;23.334;2022-07-01T03:28:59;9.5;;;4.8;;
40012;SDS011;37387;42.672;23.334;2022-07-01T03:29:59;11.6;;;5.2;;
40012;SDS011;37387;42.672;23.334;2022-07-01T03:30:59;11.6;;;4.7;;
40012;SDS011;37387;42.672;23.334;2022-07-01T03:32:59;10.6;;;4.8;;
40012;SDS011;37387;42.672;23.334;2022-07-01T03:33:59;11.5;;;5.3;;
40012;SDS011;37387;42.672;23.334;2022-07-01T03:35:00;11.5;;;4.6;;
40012;SDS011;37387;42.672;23.334;2022-07-01T03:36:00;25.8;;;16.2;;
40012;SDS011;37387;42.672;23.334;2022-07-01T03:37:00;25.8;;;7.0;;
40012;SDS011;37387;42.672;23.334;2022-07-01T03:38:00;15.4;;;9.8;;
40012;SDS011;37387;42.672;23.334;2022-07-01T03:39:00;15.4;;;9.3;;
40012;SDS011;37387;42.672;23.334;2022-07-01T03:40:00;15.3;;;7.8;;
40012;SDS011;37387;42.672;23.334;2022-07-01T03:41:00;16.4;;;8.3;;
40012;SDS011;37387;42.672;23.334;2022-07-01T03:42:01;11.6;;;4.8;;
40012;SDS011;37387;42.672;23.334;2022-07-01T03:43:01;11.6;;;4.9;;
40012;SDS011;37387;42.672;23.334;2022-07-01T03:44:01;11.0;;;4.7;;
40012;SDS011;37387;42.672;23.334;2022-07-01T03:45:01;11.0;;;4.5;;
40012;SDS011;37387;42.672;23.334;2022-07-01T03:46:01;8.9;;;4.8;;
40012;SDS011;37387;42.672;23.334;2022-07-01T03:47:01;13.3;;;4.4;;
40012;SDS011;37387;42.672;23.334;2022-07-01T03:48:01;10.4;;;4.8;;
40012;SDS011;37387;42.672;23.334;2022-07-01T03:49:01;10.4;;;4.5;;
40012;SDS011;37387;42.672;23.334;2022-07-01T03:50:02;9.2;;;19.6;;
40012;SDS011;37387;42.672;23.334;2022-07-01T03:51:02;29.6;;;16.9;;
40012;SDS011;37387;42.672;23.334;2022-07-01T03:52:02;34.5;;;19.9;;
40012;SDS011;37387;42.672;23.334;2022-07-01T03:53:02;34.5;;;9.2;;
40012;SDS011;37387;42.672;23.334;2022-07-01T03:54:02;10.0;;;5.0;;
40012;SDS011;37387;42.672;23.334;2022-07-01T03:55:03;10.0;;;5.5;;
40012;SDS011;37387;42.672;23.334;2022-07-01T03:56:03;12.0;;;5.0;;
40012;SDS011;37387;42.672;23.334;2022-07-01T03:57:04;10.1;;;6.1;;
40012;SDS011;37387;42.672;23.334;2022-07-01T03:58:03;11.1;;;43.4;;
40012;SDS011;37387;42.672;23.334;2022-07-01T03:59:03;71.0;;;28.9;;
40012;SDS011;37387;42.672;23.334;2022-07-01T04:00:04;46.7;;;12.4;;
40012;SDS011;37387;42.672;23.334;2022-07-01T04:01:03;21.7;;;19.6;;
40012;SDS011;37387;42.672;23.334;2022-07-01T04:02:04;33.7;;;10.0;;
40012;SDS011;37387;42.672;23.334;2022-07-01T04:03:04;21.2;;;7.7;;
40012;SDS011;37387;42.672;23.334;2022-07-01T04:04:04;14.2;;;7.1;;
40012;SDS011;37387;42.672;23.334;2022-07-01T04:05:04;12.1;;;6.6;;
40012;SDS011;37387;42.672;23.334;2022-07-01T04:06:04;12.1;;;6.4;;
40012;SDS011;37387;42.672;23.334;2022-07-01T04:07:05;9.9;;;6.3;;
40012;SDS011;37387;42.672;23.334;2022-07-01T04:08:05;12.7;;;6.8;;
40012;SDS011;37387;42.672;23.334;2022-07-01T04:09:05;11.2;;;6.3;;
40012;SDS011;37387;42.672;23.334;2022-07-01T04:10:05;13.2;;;6.7;;
40012;SDS011;37387;42.672;23.334;2022-07-01T04:11:05;8.7;;;4.8;;
40012;SDS011;37387;42.672;23.334;2022-07-01T04:12:05;7.8;;;5.7;;
40012;SDS011;37387;42.672;23.334;2022-07-01T04:13:05;8.2;;;5.1;;
40012;SDS011;37387;42.672;23.334;2022-07-01T04:14:06;8.2;;;6.9;;
40012;SDS011;37387;42.672;23.334;2022-07-01T04:15:06;14.5;;;7.2;;
40012;SDS011;37387;42.672;23.334;2022-07-01T04:16:06;15.0;;;5.7;;
40012;SDS011;37387;42.672;23.334;2022-07-01T04:17:06;13.5;;;5.9;;
40012;SDS011;37387;42.672;23.334;2022-07-01T04:18:06;9.8;;;5.7;;
40012;SDS011;37387;42.672;23.334;2022-07-01T04:19:07;9.4;;;5.1;;
40012;SDS011;37387;42.672;23.334;2022-07-01T04:20:07;9.4;;;5.6;;
40012;SDS011;37387;42.672;23.334;2022-07-01T04:21:07;10.9;;;5.5;;
40012;SDS011;37387;42.672;23.334;2022-07-01T04:22:07;10.2;;;7.5;;
40012;SDS011;37387;42.672;23.334;2022-07-01T04:23:07;12.7;;;6.4;;
40012;SDS011;37387;42.672;23.334;2022-07-01T04:24:07;13.4;;;6.2;;
40012;SDS011;37387;42.672;23.334;2022-07-01T04:25:08;9.5;;;5.2;;
40012;SDS011;37387;42.672;23.334;2022-07-01T04:26:08;13.3;;;4.9;;
40012;SDS011;37387;42.672;23.334;2022-07-01T04:27:08;7.0;;;5.4;;
40012;SDS011;37387;42.672;23.334;2022-07-01T04:28:08;9.0;;;6.1;;
40012;SDS011;37387;42.672;23.334;2022-07-01T04:29:08;11.7;;;5.4;;
40012;SDS011;37387;42.672;23.334;2022-07-01T04:30:09;8.1;;;5.7;;
40012;SDS011;37387;42.672;23.334;2022-07-01T04:31:08;10.7;;;5.9;;
40012;SDS011;37387;42.672;23.334;2022-07-01T04:32:08;11.0;;;5.6;;
40012;SDS011;37387;42.672;23.334;2022-07-01T04:33:09;8.6;;;5.4;;
40012;SDS011;37387;42.672;23.334;2022-07-01T04:36:09;10.9;;;5.7;;
40012;SDS011;37387;42.672;23.334;2022-07-01T04:37:09;10.6;;;5.6;;
40012;SDS011;37387;42.672;23.334;2022-07-01T04:38:09;10.6;;;6.0;;
40012;SDS011;37387;42.672;23.334;2022-07-01T04:39:10;8.7;;;5.7;;
40012;SDS011;37387;42.672;23.334;2022-07-01T04:40:10;9.8;;;6.0;;
40012;SDS011;37387;42.672;23.334;2022-07-01T04:41:10;9.2;;;5.7;;
40012;SDS011;37387;42.672;23.334;2022-07-01T04:42:10;9.2;;;5.5;;
40012;SDS011;37387;42.672;23.334;2022-07-01T04:43:10;8.4;;;5.4;;
40012;SDS011;37387;42.672;23.334;2022-07-01T04:44:11;8.4;;;5.6;;
40012;SDS011;37387;42.672;23.334;2022-07-01T04:45:11;9.5;;;5.8;;
40012;SDS011;37387;42.672;23.334;2022-07-01T04:46:11;9.5;;;6.1;;
40012;SDS011;37387;42.672;23.334;2022-07-01T04:47:11;10.9;;;5.9;;
40012;SDS011;37387;42.672;23.334;2022-07-01T04:48:11;9.0;;;5.4;;
40012;SDS011;37387;42.672;23.334;2022-07-01T04:49:12;7.3;;;5.3;;
40012;SDS011;37387;42.672;23.334;2022-07-01T04:51:12;6.6;;;5.9;;
40012;SDS011;37387;42.672;23.334;2022-07-01T04:52:12;8.7;;;5.5;;
40012;SDS011;37387;42.672;23.334;2022-07-01T04:53:12;10.1;;;5.4;;
40012;SDS011;37387;42.672;23.334;2022-07-01T04:54:12;10.1;;;5.8;;
40012;SDS011;37387;42.672;23.334;2022-07-01T04:55:12;10.1;;;5.9;;
40012;SDS011;37387;42.672;23.334;2022-07-01T04:56:13;8.1;;;6.1;;
40012;SDS011;37387;42.672;23.334;2022-07-01T04:57:13;8.7;;;6.2;;
40012;SDS011;37387;42.672;23.334;2022-07-01T04:58:13;10.5;;;5.8;;
40012;SDS011;37387;42.672;23.334;2022-07-01T04:59:13;9.4;;;6.1;;
40012;SDS011;37387;42.672;23.334;2022-07-01T05:00:14;8.9;;;5.4;;
40012;SDS011;37387;42.672;23.334;2022-07-01T05:01:14;10.4;;;5.3;;
40012;SDS011;37387;42.672;23.334;2022-07-01T05:02:14;10.4;;;5.8;;
40012;SDS011;37387;42.672;23.334;2022-07-01T05:04:14;10.3;;;5.7;;
40012;SDS011;37387;42.672;23.334;2022-07-01T05:07:15;11.5;;;5.9;;
40012;SDS011;37387;42.672;23.334;2022-07-01T05:09:15;10.6;;;5.3;;
40012;SDS011;37387;42.672;23.334;2022-07-01T05:10:15;9.0;;;5.7;;
40012;SDS011;37387;42.672;23.334;2022-07-01T05:11:15;9.2;;;5.4;;
40012;SDS011;37387;42.672;23.334;2022-07-01T05:12:16;7.5;;;5.0;;
40012;SDS011;37387;42.672;23.334;2022-07-01T05:13:16;8.6;;;5.8;;
40012;SDS011;37387;42.672;23.334;2022-07-01T05:14:16;12.4;;;5.9;;
40012;SDS011;37387;42.672;23.334;2022-07-01T05:15:16;12.4;;;5.2;;
40012;SDS011;37387;42.672;23.334;2022-07-01T05:16:17;8.8;;;6.4;;
40012;SDS011;37387;42.672;23.334;2022-07-01T05:17:17;9.1;;;5.6;;
40012;SDS011;37387;42.672;23.334;2022-07-01T05:18:17;9.1;;;6.1;;
40012;SDS011;37387;42.672;23.334;2022-07-01T05:19:17;10.9;;;6.3;;
40012;SDS011;37387;42.672;23.334;2022-07-01T05:20:18;10.6;;;5.6;;
40012;SDS011;37387;42.672;23.334;2022-07-01T05:21:18;9.3;;;6.2;;
40012;SDS011;37387;42.672;23.334;2022-07-01T05:22:18;9.3;;;4.9;;
40012;SDS011;37387;42.672;23.334;2022-07-01T05:23:18;7.3;;;6.2;;
40012;SDS011;37387;42.672;23.334;2022-07-01T05:24:18;6.9;;;5.2;;
40012;SDS011;37387;42.672;23.334;2022-07-01T05:25:19;6.9;;;5.4;;
40012;SDS011;37387;42.672;23.334;2022-07-01T05:26:19;7.6;;;5.1;;
40012;SDS011;37387;42.672;23.334;2022-07-01T05:27:19;7.2;;;5.5;;
40012;SDS011;37387;42.672;23.334;2022-07-01T05:28:19;8.6;;;5.3;;
40012;SDS011;37387;42.672;23.334;2022-07-01T05:29:20;10.5;;;4.8;;
40012;SDS011;37387;42.672;23.334;2022-07-01T05:30:20;7.1;;;4.6;;
40012;SDS011;37387;42.672;23.334;2022-07-01T05:31:20;7.5;;;5.2;;
40012;SDS011;37387;42.672;23.334;2022-07-01T05:32:20;6.5;;;5.0;;
40012;SDS011;37387;42.672;23.334;2022-07-01T05:33:20;6.5;;;4.9;;
40012;SDS011;37387;42.672;23.334;2022-07-01T05:34:20;8.2;;;4.8;;
40012;SDS011;37387;42.672;23.334;2022-07-01T05:35:21;8.2;;;4.9;;
40012;SDS011;37387;42.672;23.334;2022-07-01T05:36:21;7.9;;;4.5;;
40012;SDS011;37387;42.672;23.334;2022-07-01T05:37:21;8.6;;;5.0;;
40012;SDS011;37387;42.672;23.334;2022-07-01T05:38:21;7.4;;;5.1;;
40012;SDS011;37387;42.672;23.334;2022-07-01T05:39:22;7.4;;;5.5;;
40012;SDS011;37387;42.672;23.334;2022-07-01T05:40:22;10.2;;;5.0;;
40012;SDS011;37387;42.672;23.334;2022-07-01T05:41:22;8.4;;;5.6;;
40012;SDS011;37387;42.672;23.334;2022-07-01T05:42:22;8.4;;;5.3;;
40012;SDS011;37387;42.672;23.334;2022-07-01T05:43:23;8.7;;;5.4;;
40012;SDS011;37387;42.672;23.334;2022-07-01T05:44:23;9.2;;;5.0;;
40012;SDS011;37387;42.672;23.334;2022-07-01T05:46:23;8.2;;;5.1;;
40012;SDS011;37387;42.672;23.334;2022-07-01T05:47:24;7.7;;;5.2;;
40012;SDS011;37387;42.672;23.334;2022-07-01T05:49:24;9.3;;;4.8;;
40012;SDS011;37387;42.672;23.334;2022-07-01T05:50:24;8.0;;;5.5;;
40012;SDS011;37387;42.672;23.334;2022-07-01T05:51:24;12.4;;;5.0;;
40012;SDS011;37387;42.672;23.334;2022-07-01T05:53:25;9.4;;;6.1;;
40012;SDS011;37387;42.672;23.334;2022-07-01T05:54:25;7.6;;;5.0;;
40012;SDS011;37387;42.672;23.334;2022-07-01T05:55:25;10.5;;;5.2;;
40012;SDS011;37387;42.672;23.334;2022-07-01T05:56:26;7.0;;;4.8;;
40012;SDS011;37387;42.672;23.334;2022-07-01T05:57:26;7.0;;;6.4;;
40012;SDS011;37387;42.672;23.334;2022-07-01T05:58:26;13.5;;;4.9;;
40012;SDS011;37387;42.672;23.334;2022-07-01T05:59:26;9.3;;;5.0;;
40012;SDS011;37387;42.672;23.334;2022-07-01T06:00:26;8.6;;;4.9;;
40012;SDS011;37387;42.672;23.334;2022-07-01T06:01:27;7.6;;;5.0;;
40012;SDS011;37387;42.672;23.334;2022-07-01T06:02:27;8.8;;;5.1;;
40012;SDS011;37387;42.672;23.334;2022-07-01T06:04:27;9.5;;;4.9;;
40012;SDS011;37387;42.672;23.334;2022-07-01T06:05:28;6.4;;;4.7;;
40012;SDS011;37387;42.672;23.334;2022-07-01T06:06:28;7.4;;;4.8;;
40012;SDS011;37387;42.672;23.334;2022-07-01T06:08:28;7.3;;;5.3;;
40012;SDS011;37387;42.672;23.334;2022-07-01T06:09:29;8.0;;;4.7;;
40012;SDS011;37387;42.672;23.334;2022-07-01T06:10:29;8.7;;;4.5;;
40012;SDS011;37387;42.672;23.334;2022-07-01T06:11:29;8.7;;;4.4;;
40012;SDS011;37387;42.672;23.334;2022-07-01T06:12:29;10.3;;;4.7;;
40012;SDS011;37387;42.672;23.334;2022-07-01T06:13:30;10.3;;;4.5;;
40012;SDS011;37387;42.672;23.334;2022-07-01T06:14:30;7.0;;;4.3;;
40012;SDS011;37387;42.672;23.334;2022-07-01T06:15:30;7.0;;;4.1;;
40012;SDS011;37387;42.672;23.334;2022-07-01T06:16:30;6.2;;;4.7;;
40012;SDS011;37387;42.672;23.334;2022-07-01T06:17:30;6.9;;;4.6;;
40012;SDS011;37387;42.672;23.334;2022-07-01T06:19:31;8.9;;;5.0;;
40012;SDS011;37387;42.672;23.334;2022-07-01T06:20:31;9.7;;;5.3;;
40012;SDS011;37387;42.672;23.334;2022-07-01T06:22:32;8.2;;;4.9;;
40012;SDS011;37387;42.672;23.334;2022-07-01T06:23:32;10.4;;;4.5;;
40012;SDS011;37387;42.672;23.334;2022-07-01T06:24:32;9.1;;;4.6;;
40012;SDS011;37387;42.672;23.334;2022-07-01T06:25:32;7.9;;;4.8;;
40012;SDS011;37387;42.672;23.334;2022-07-01T06:26:33;10.0;;;4.2;;
40012;SDS011;37387;42.672;23.334;2022-07-01T06:27:37;10.0;;;4.8;;
40012;SDS011;37387;42.672;23.334;2022-07-01T06:28:33;10.0;;;4.6;;
40012;SDS011;37387;42.672;23.334;2022-07-01T06:29:34;6.5;;;5.2;;
40012;SDS011;37387;42.672;23.334;2022-07-01T06:31:34;12.3;;;5.0;;
40012;SDS011;37387;42.672;23.334;2022-07-01T06:32:34;10.2;;;4.7;;
40012;SDS011;37387;42.672;23.334;2022-07-01T06:33:35;10.2;;;4.9;;
40012;SDS011;37387;42.672;23.334;2022-07-01T06:34:35;8.7;;;4.4;;
40012;SDS011;37387;42.672;23.334;2022-07-01T06:35:35;8.7;;;4.6;;
40012;SDS011;37387;42.672;23.334;2022-07-01T06:36:36;7.2;;;4.3;;
40012;SDS011;37387;42.672;23.334;2022-07-01T06:37:36;6.5;;;5.0;;
40012;SDS011;37387;42.672;23.334;2022-07-01T06:38:36;7.7;;;4.9;;
40012;SDS011;37387;42.672;23.334;2022-07-01T06:39:36;7.5;;;5.3;;
40012;SDS011;37387;42.672;23.334;2022-07-01T06:40:37;10.8;;;5.7;;
40012;SDS011;37387;42.672;23.334;2022-07-01T06:41:37;10.8;;;5.1;;
40012;SDS011;37387;42.672;23.334;2022-07-01T06:42:37;8.6;;;5.2;;
40012;SDS011;37387;42.672;23.334;2022-07-01T06:44:38;12.8;;;5.5;;
40012;SDS011;37387;42.672;23.334;2022-07-01T06:45:38;12.8;;;4.8;;
40012;SDS011;37387;42.672;23.334;2022-07-01T06:46:38;10.2;;;5.1;;
40012;SDS011;37387;42.672;23.334;2022-07-01T06:47:38;10.2;;;5.2;;
40012;SDS011;37387;42.672;23.334;2022-07-01T06:48:39;8.6;;;5.3;;
40012;SDS011;37387;42.672;23.334;2022-07-01T06:50:39;10.1;;;5.7;;
40012;SDS011;37387;42.672;23.334;2022-07-01T06:51:40;9.9;;;5.5;;
40012;SDS011;37387;42.672;23.334;2022-07-01T06:52:40;8.9;;;5.4;;
40012;SDS011;37387;42.672;23.334;2022-07-01T06:53:40;8.9;;;4.9;;
40012;SDS011;37387;42.672;23.334;2022-07-01T06:54:40;11.2;;;5.5;;